sensor_id;sensor_type;location;lat;lon;timestamp;P1;durP1;ratioP1;P2;durP2;ratioP2
18580;SDS011;9420;50.876;7.012;2023-12-29T00:01:37;1.87;;;0.77;;
18580;SDS011;9420;50.876;7.012;2023-12-29T00:04:03;2.40;;;0.60;;
18580;SDS011;9420;50.876;7.012;2023-12-29T00:06:30;3.20;;;0.70;;
18580;SDS011;9420;50.876;7.012;2023-12-29T00:08:56;5.30;;;1.00;;
18580;SDS011;9420;50.876;7.012;2023-12-29T00:11:25;6.20;;;0.80;;
18580;SDS011;9420;50.876;7.012;2023-12-29T00:13:53;2.00;;;0.90;;
18580;SDS011;9420;50.876;7.012;2023-12-29T00:16:19;2.00;;;1.33;;
18580;SDS011;9420;50.876;7.012;2023-12-29T00:18:46;2.07;;;0.63;;
18580;SDS011;9420;50.876;7.012;2023-12-29T00:21:12;3.73;;;1.10;;
18580;SDS011;9420;50.876;7.012;2023-12-29T00:23:39;4.93;;;0.90;;
18580;SDS011;9420;50.876;7.012;2023-12-29T00:26:05;8.47;;;0.80;;
18580;SDS011;9420;50.876;7.012;2023-12-29T00:28:33;3.50;;;0.80;;
18580;SDS011;9420;50.876;7.012;2023-12-29T00:31:02;1.47;;;0.80;;
18580;SDS011;9420;50.876;7.012;2023-12-29T00:33:30;1.33;;;0.70;;
18580;SDS011;9420;50.876;7.012;2023-12-29T00:35:57;8.03;;;1.30;;
18580;SDS011;9420;50.876;7.012;2023-12-29T00:38:24;3.13;;;1.00;;
18580;SDS011;9420;50.876;7.012;2023-12-29T00:40:52;7.07;;;1.63;;
18580;SDS011;9420;50.876;7.012;2023-12-29T00:43:19;7.63;;;1.43;;
18580;SDS011;9420;50.876;7.012;2023-12-29T00:45:46;4.90;;;1.20;;
18580;SDS011;9420;50.876;7.012;2023-12-29T00:48:14;10.53;;;1.10;;
18580;SDS011;9420;50.876;7.012;2023-12-29T00:50:41;5.33;;;1.20;;
18580;SDS011;9420;50.876;7.012;2023-12-29T00:53:08;3.13;;;1.10;;
18580;SDS011;9420;50.876;7.012;2023-12-29T00:55:34;8.57;;;1.20;;
18580;SDS011;9420;50.876;7.012;2023-12-29T00:58:01;5.87;;;1.10;;
18580;SDS011;9420;50.876;7.012;2023-12-29T01:00:28;4.63;;;1.30;;
18580;SDS011;9420;50.876;7.012;2023-12-29T01:02:54;3.00;;;1.10;;
18580;SDS011;9420;50.876;7.012;2023-12-29T01:05:23;4.87;;;0.80;;
18580;SDS011;9420;50.876;7.012;2023-12-29T01:07:49;3.73;;;1.13;;
18580;SDS011;9420;50.876;7.012;2023-12-29T01:10:16;5.93;;;1.20;;
18580;SDS011;9420;50.876;7.012;2023-12-29T01:12:42;6.70;;;1.20;;
18580;SDS011;9420;50.876;7.012;2023-12-29T01:15:09;3.30;;;1.13;;
18580;SDS011;9420;50.876;7.012;2023-12-29T01:17:36;6.07;;;1.30;;
18580;SDS011;9420;50.876;7.012;2023-12-29T01:20:03;2.43;;;1.10;;
18580;SDS011;9420;50.876;7.012;2023-12-29T01:22:31;9.73;;;1.43;;
18580;SDS011;9420;50.876;7.012;2023-12-29T01:24:58;5.60;;;1.17;;
18580;SDS011;9420;50.876;7.012;2023-12-29T01:27:25;4.30;;;1.33;;
18580;SDS011;9420;50.876;7.012;2023-12-29T01:29:52;7.93;;;1.40;;
18580;SDS011;9420;50.876;7.012;2023-12-29T01:32:19;7.27;;;1.90;;
18580;SDS011;9420;50.876;7.012;2023-12-29T01:34:45;4.07;;;1.20;;
18580;SDS011;9420;50.876;7.012;2023-12-29T01:37:12;8.20;;;1.67;;
18580;SDS011;9420;50.876;7.012;2023-12-29T01:39:40;7.50;;;2.73;;
18580;SDS011;9420;50.876;7.012;2023-12-29T01:42:07;5.73;;;1.63;;
18580;SDS011;9420;50.876;7.012;2023-12-29T01:44:36;4.13;;;1.23;;
18580;SDS011;9420;50.876;7.012;2023-12-29T01:47:03;11.33;;;1.90;;
18580;SDS011;9420;50.876;7.012;2023-12-29T01:49:36;4.73;;;1.23;;
18580;SDS011;9420;50.876;7.012;2023-12-29T01:52:03;8.07;;;1.93;;
18580;SDS011;9420;50.876;7.012;2023-12-29T01:54:32;9.97;;;1.67;;
18580;SDS011;9420;50.876;7.012;2023-12-29T01:57:02;4.20;;;1.13;;
18580;SDS011;9420;50.876;7.012;2023-12-29T01:59:29;6.10;;;1.47;;
18580;SDS011;9420;50.876;7.012;2023-12-29T02:01:57;5.83;;;1.37;;
18580;SDS011;9420;50.876;7.012;2023-12-29T02:04:24;6.73;;;1.40;;
18580;SDS011;9420;50.876;7.012;2023-12-29T02:06:51;4.87;;;1.40;;
18580;SDS011;9420;50.876;7.012;2023-12-29T02:09:18;8.67;;;1.17;;
18580;SDS011;9420;50.876;7.012;2023-12-29T02:11:45;4.13;;;1.23;;
18580;SDS011;9420;50.876;7.012;2023-12-29T02:14:13;6.87;;;1.43;;
18580;SDS011;9420;50.876;7.012;2023-12-29T02:16:44;8.83;;;1.83;;
18580;SDS011;9420;50.876;7.012;2023-12-29T02:19:24;6.77;;;1.47;;
18580;SDS011;9420;50.876;7.012;2023-12-29T02:21:59;5.73;;;1.23;;
18580;SDS011;9420;50.876;7.012;2023-12-29T02:24:26;9.30;;;1.50;;
18580;SDS011;9420;50.876;7.012;2023-12-29T02:26:55;3.87;;;1.43;;
18580;SDS011;9420;50.876;7.012;2023-12-29T02:29:26;5.23;;;1.50;;
18580;SDS011;9420;50.876;7.012;2023-12-29T02:31:56;4.20;;;1.03;;
18580;SDS011;9420;50.876;7.012;2023-12-29T02:34:25;7.30;;;1.33;;
18580;SDS011;9420;50.876;7.012;2023-12-29T02:36:55;5.07;;;1.00;;
18580;SDS011;9420;50.876;7.012;2023-12-29T02:39:23;3.93;;;1.43;;
18580;SDS011;9420;50.876;7.012;2023-12-29T02:41:50;7.47;;;1.77;;
18580;SDS011;9420;50.876;7.012;2023-12-29T02:44:18;5.50;;;1.30;;
18580;SDS011;9420;50.876;7.012;2023-12-29T02:46:45;7.80;;;1.33;;
18580;SDS011;9420;50.876;7.012;2023-12-29T02:49:11;3.33;;;1.20;;
18580;SDS011;9420;50.876;7.012;2023-12-29T02:51:38;6.30;;;1.67;;
18580;SDS011;9420;50.876;7.012;2023-12-29T02:54:05;6.00;;;1.70;;
18580;SDS011;9420;50.876;7.012;2023-12-29T02:56:32;6.77;;;1.50;;
18580;SDS011;9420;50.876;7.012;2023-12-29T02:58:59;10.67;;;1.30;;
18580;SDS011;9420;50.876;7.012;2023-12-29T03:01:27;5.37;;;1.10;;
18580;SDS011;9420;50.876;7.012;2023-12-29T03:03:54;7.23;;;1.77;;
18580;SDS011;9420;50.876;7.012;2023-12-29T03:06:21;7.67;;;1.90;;
18580;SDS011;9420;50.876;7.012;2023-12-29T03:08:48;5.93;;;1.70;;
18580;SDS011;9420;50.876;7.012;2023-12-29T03:11:14;3.23;;;1.03;;
18580;SDS011;9420;50.876;7.012;2023-12-29T03:13:41;9.43;;;2.50;;
18580;SDS011;9420;50.876;7.012;2023-12-29T03:16:08;4.47;;;1.00;;
18580;SDS011;9420;50.876;7.012;2023-12-29T03:18:36;7.37;;;1.17;;
18580;SDS011;9420;50.876;7.012;2023-12-29T03:21:04;5.67;;;1.60;;
18580;SDS011;9420;50.876;7.012;2023-12-29T03:23:32;4.20;;;1.03;;
18580;SDS011;9420;50.876;7.012;2023-12-29T03:25:59;6.93;;;1.07;;
18580;SDS011;9420;50.876;7.012;2023-12-29T03:28:25;5.83;;;1.50;;
18580;SDS011;9420;50.876;7.012;2023-12-29T03:30:52;3.00;;;0.90;;
18580;SDS011;9420;50.876;7.012;2023-12-29T03:33:18;4.17;;;1.00;;
18580;SDS011;9420;50.876;7.012;2023-12-29T03:35:46;7.40;;;1.17;;
18580;SDS011;9420;50.876;7.012;2023-12-29T03:38:13;3.03;;;1.10;;
18580;SDS011;9420;50.876;7.012;2023-12-29T03:40:40;7.77;;;1.10;;
18580;SDS011;9420;50.876;7.012;2023-12-29T03:43:07;5.13;;;1.23;;
18580;SDS011;9420;50.876;7.012;2023-12-29T03:45:34;12.63;;;1.47;;
18580;SDS011;9420;50.876;7.012;2023-12-29T03:48:00;5.97;;;1.10;;
18580;SDS011;9420;50.876;7.012;2023-12-29T03:50:28;7.30;;;1.47;;
18580;SDS011;9420;50.876;7.012;2023-12-29T03:52:56;9.17;;;1.30;;
18580;SDS011;9420;50.876;7.012;2023-12-29T03:55:22;8.20;;;1.27;;
18580;SDS011;9420;50.876;7.012;2023-12-29T03:57:49;4.70;;;1.60;;
18580;SDS011;9420;50.876;7.012;2023-12-29T04:00:15;19.20;;;1.73;;
18580;SDS011;9420;50.876;7.012;2023-12-29T04:02:43;4.93;;;1.37;;
18580;SDS011;9420;50.876;7.012;2023-12-29T04:05:09;1.90;;;1.13;;
18580;SDS011;9420;50.876;7.012;2023-12-29T04:07:38;4.23;;;1.10;;
18580;SDS011;9420;50.876;7.012;2023-12-29T04:10:07;4.47;;;1.33;;
18580;SDS011;9420;50.876;7.012;2023-12-29T04:12:34;4.57;;;1.20;;
18580;SDS011;9420;50.876;7.012;2023-12-29T04:15:01;6.40;;;0.87;;
18580;SDS011;9420;50.876;7.012;2023-12-29T04:17:28;2.67;;;0.90;;
18580;SDS011;9420;50.876;7.012;2023-12-29T04:19:55;4.47;;;1.33;;
18580;SDS011;9420;50.876;7.012;2023-12-29T04:22:22;4.30;;;0.87;;
18580;SDS011;9420;50.876;7.012;2023-12-29T04:24:48;3.97;;;1.40;;
18580;SDS011;9420;50.876;7.012;2023-12-29T04:27:16;4.10;;;1.50;;
18580;SDS011;9420;50.876;7.012;2023-12-29T04:29:43;4.20;;;1.90;;
18580;SDS011;9420;50.876;7.012;2023-12-29T04:32:10;6.80;;;1.27;;
18580;SDS011;9420;50.876;7.012;2023-12-29T04:34:37;7.57;;;1.40;;
18580;SDS011;9420;50.876;7.012;2023-12-29T04:37:03;2.47;;;1.13;;
18580;SDS011;9420;50.876;7.012;2023-12-29T04:39:30;9.37;;;2.17;;
18580;SDS011;9420;50.876;7.012;2023-12-29T04:41:56;12.23;;;1.73;;
18580;SDS011;9420;50.876;7.012;2023-12-29T04:44:24;5.07;;;1.30;;
18580;SDS011;9420;50.876;7.012;2023-12-29T04:46:53;7.00;;;1.40;;
18580;SDS011;9420;50.876;7.012;2023-12-29T04:49:20;5.90;;;1.77;;
18580;SDS011;9420;50.876;7.012;2023-12-29T04:51:47;6.03;;;1.50;;
18580;SDS011;9420;50.876;7.012;2023-12-29T04:54:14;3.93;;;1.47;;
18580;SDS011;9420;50.876;7.012;2023-12-29T04:56:40;10.97;;;1.30;;
18580;SDS011;9420;50.876;7.012;2023-12-29T04:59:07;6.50;;;1.23;;
18580;SDS011;9420;50.876;7.012;2023-12-29T05:01:35;5.30;;;2.57;;
18580;SDS011;9420;50.876;7.012;2023-12-29T05:04:02;8.10;;;1.63;;
18580;SDS011;9420;50.876;7.012;2023-12-29T05:06:28;7.50;;;1.67;;
18580;SDS011;9420;50.876;7.012;2023-12-29T05:08:55;7.07;;;1.70;;
18580;SDS011;9420;50.876;7.012;2023-12-29T05:11:21;6.17;;;1.17;;
18580;SDS011;9420;50.876;7.012;2023-12-29T05:13:48;6.77;;;1.27;;
18580;SDS011;9420;50.876;7.012;2023-12-29T05:16:15;3.37;;;1.20;;
18580;SDS011;9420;50.876;7.012;2023-12-29T05:18:43;3.37;;;1.47;;
18580;SDS011;9420;50.876;7.012;2023-12-29T05:21:13;4.37;;;1.27;;
18580;SDS011;9420;50.876;7.012;2023-12-29T05:23:40;4.37;;;1.70;;
18580;SDS011;9420;50.876;7.012;2023-12-29T05:26:07;3.60;;;1.27;;
18580;SDS011;9420;50.876;7.012;2023-12-29T05:28:34;4.63;;;1.23;;
18580;SDS011;9420;50.876;7.012;2023-12-29T05:31:01;10.20;;;1.43;;
18580;SDS011;9420;50.876;7.012;2023-12-29T05:33:28;3.70;;;1.57;;
18580;SDS011;9420;50.876;7.012;2023-12-29T05:35:56;4.47;;;1.10;;
18580;SDS011;9420;50.876;7.012;2023-12-29T05:38:23;5.60;;;1.10;;
18580;SDS011;9420;50.876;7.012;2023-12-29T05:40:49;2.20;;;0.60;;
18580;SDS011;9420;50.876;7.012;2023-12-29T05:43:17;2.47;;;0.70;;
18580;SDS011;9420;50.876;7.012;2023-12-29T05:45:44;6.47;;;1.20;;
18580;SDS011;9420;50.876;7.012;2023-12-29T05:48:11;4.67;;;1.13;;
18580;SDS011;9420;50.876;7.012;2023-12-29T05:50:37;2.87;;;0.63;;
18580;SDS011;9420;50.876;7.012;2023-12-29T05:53:05;4.53;;;1.33;;
18580;SDS011;9420;50.876;7.012;2023-12-29T05:55:32;7.13;;;0.73;;
18580;SDS011;9420;50.876;7.012;2023-12-29T05:57:59;4.10;;;1.53;;
18580;SDS011;9420;50.876;7.012;2023-12-29T06:00:26;5.77;;;1.00;;
18580;SDS011;9420;50.876;7.012;2023-12-29T06:02:53;4.17;;;0.77;;
18580;SDS011;9420;50.876;7.012;2023-12-29T06:05:19;3.47;;;0.90;;
18580;SDS011;9420;50.876;7.012;2023-12-29T06:07:46;4.03;;;1.23;;
18580;SDS011;9420;50.876;7.012;2023-12-29T06:10:14;3.83;;;1.30;;
18580;SDS011;9420;50.876;7.012;2023-12-29T06:12:41;2.70;;;1.30;;
18580;SDS011;9420;50.876;7.012;2023-12-29T06:15:09;5.77;;;1.73;;
18580;SDS011;9420;50.876;7.012;2023-12-29T06:17:35;5.53;;;1.20;;
18580;SDS011;9420;50.876;7.012;2023-12-29T06:20:02;5.10;;;1.10;;
18580;SDS011;9420;50.876;7.012;2023-12-29T06:22:31;8.37;;;1.93;;
18580;SDS011;9420;50.876;7.012;2023-12-29T06:24:57;3.80;;;1.77;;
18580;SDS011;9420;50.876;7.012;2023-12-29T06:27:26;12.23;;;1.50;;
18580;SDS011;9420;50.876;7.012;2023-12-29T06:29:53;4.83;;;1.10;;
18580;SDS011;9420;50.876;7.012;2023-12-29T06:32:19;4.03;;;1.40;;
18580;SDS011;9420;50.876;7.012;2023-12-29T06:34:47;3.33;;;1.33;;
18580;SDS011;9420;50.876;7.012;2023-12-29T06:37:13;3.50;;;1.20;;
18580;SDS011;9420;50.876;7.012;2023-12-29T06:39:40;3.07;;;0.60;;
18580;SDS011;9420;50.876;7.012;2023-12-29T06:42:07;6.43;;;1.33;;
18580;SDS011;9420;50.876;7.012;2023-12-29T06:44:35;2.70;;;1.00;;
18580;SDS011;9420;50.876;7.012;2023-12-29T06:47:01;3.97;;;1.60;;
18580;SDS011;9420;50.876;7.012;2023-12-29T06:49:30;3.00;;;0.93;;
18580;SDS011;9420;50.876;7.012;2023-12-29T06:51:56;3.87;;;1.13;;
18580;SDS011;9420;50.876;7.012;2023-12-29T06:54:25;3.17;;;1.27;;
18580;SDS011;9420;50.876;7.012;2023-12-29T06:56:52;3.60;;;1.03;;
18580;SDS011;9420;50.876;7.012;2023-12-29T06:59:19;3.80;;;1.10;;
18580;SDS011;9420;50.876;7.012;2023-12-29T07:01:47;5.27;;;1.53;;
18580;SDS011;9420;50.876;7.012;2023-12-29T07:04:14;4.27;;;1.33;;
18580;SDS011;9420;50.876;7.012;2023-12-29T07:06:41;6.13;;;0.97;;
18580;SDS011;9420;50.876;7.012;2023-12-29T07:09:08;3.23;;;0.77;;
18580;SDS011;9420;50.876;7.012;2023-12-29T07:11:35;4.63;;;1.03;;
18580;SDS011;9420;50.876;7.012;2023-12-29T07:14:02;6.20;;;0.97;;
18580;SDS011;9420;50.876;7.012;2023-12-29T07:16:29;3.13;;;0.77;;
18580;SDS011;9420;50.876;7.012;2023-12-29T07:18:57;6.20;;;1.23;;
18580;SDS011;9420;50.876;7.012;2023-12-29T07:21:24;5.80;;;1.13;;
18580;SDS011;9420;50.876;7.012;2023-12-29T07:23:50;2.53;;;0.87;;
18580;SDS011;9420;50.876;7.012;2023-12-29T07:26:17;3.83;;;0.70;;
18580;SDS011;9420;50.876;7.012;2023-12-29T07:28:43;1.67;;;0.57;;
18580;SDS011;9420;50.876;7.012;2023-12-29T07:31:09;4.00;;;0.93;;
18580;SDS011;9420;50.876;7.012;2023-12-29T07:33:36;2.73;;;0.63;;
18580;SDS011;9420;50.876;7.012;2023-12-29T07:36:04;5.30;;;0.97;;
18580;SDS011;9420;50.876;7.012;2023-12-29T07:38:31;4.50;;;0.87;;
18580;SDS011;9420;50.876;7.012;2023-12-29T07:40:58;5.37;;;1.73;;
18580;SDS011;9420;50.876;7.012;2023-12-29T07:43:25;2.33;;;0.43;;
18580;SDS011;9420;50.876;7.012;2023-12-29T07:45:51;1.70;;;0.70;;
18580;SDS011;9420;50.876;7.012;2023-12-29T07:48:18;2.03;;;0.80;;
18580;SDS011;9420;50.876;7.012;2023-12-29T07:50:45;2.83;;;0.57;;
18580;SDS011;9420;50.876;7.012;2023-12-29T07:53:13;5.97;;;0.77;;
18580;SDS011;9420;50.876;7.012;2023-12-29T07:55:42;4.27;;;0.60;;
18580;SDS011;9420;50.876;7.012;2023-12-29T07:58:11;4.03;;;1.03;;
18580;SDS011;9420;50.876;7.012;2023-12-29T08:00:38;2.33;;;0.60;;
18580;SDS011;9420;50.876;7.012;2023-12-29T08:03:04;2.00;;;0.60;;
18580;SDS011;9420;50.876;7.012;2023-12-29T08:05:32;7.33;;;0.80;;
18580;SDS011;9420;50.876;7.012;2023-12-29T08:07:59;5.63;;;1.10;;
18580;SDS011;9420;50.876;7.012;2023-12-29T08:10:27;9.63;;;1.07;;
18580;SDS011;9420;50.876;7.012;2023-12-29T08:12:54;3.03;;;0.67;;
18580;SDS011;9420;50.876;7.012;2023-12-29T08:15:21;5.37;;;0.93;;
18580;SDS011;9420;50.876;7.012;2023-12-29T08:17:47;4.33;;;0.77;;
18580;SDS011;9420;50.876;7.012;2023-12-29T08:20:14;3.73;;;0.80;;
18580;SDS011;9420;50.876;7.012;2023-12-29T08:22:41;2.53;;;0.63;;
18580;SDS011;9420;50.876;7.012;2023-12-29T08:25:08;5.70;;;0.97;;
18580;SDS011;9420;50.876;7.012;2023-12-29T08:27:35;6.07;;;1.27;;
18580;SDS011;9420;50.876;7.012;2023-12-29T08:30:04;3.37;;;0.70;;
18580;SDS011;9420;50.876;7.012;2023-12-29T08:32:32;5.27;;;1.30;;
18580;SDS011;9420;50.876;7.012;2023-12-29T08:34:59;6.90;;;1.17;;
18580;SDS011;9420;50.876;7.012;2023-12-29T08:37:25;5.00;;;1.20;;
18580;SDS011;9420;50.876;7.012;2023-12-29T08:39:52;8.20;;;1.43;;
18580;SDS011;9420;50.876;7.012;2023-12-29T08:42:19;3.93;;;1.63;;
18580;SDS011;9420;50.876;7.012;2023-12-29T08:44:47;7.50;;;2.73;;
18580;SDS011;9420;50.876;7.012;2023-12-29T08:47:13;2.77;;;1.87;;
18580;SDS011;9420;50.876;7.012;2023-12-29T08:49:40;3.87;;;1.23;;
18580;SDS011;9420;50.876;7.012;2023-12-29T08:52:07;3.93;;;1.87;;
18580;SDS011;9420;50.876;7.012;2023-12-29T08:54:34;4.67;;;1.23;;
18580;SDS011;9420;50.876;7.012;2023-12-29T08:57:01;9.23;;;2.07;;
18580;SDS011;9420;50.876;7.012;2023-12-29T08:59:28;3.37;;;1.30;;
18580;SDS011;9420;50.876;7.012;2023-12-29T09:01:56;5.47;;;1.10;;
18580;SDS011;9420;50.876;7.012;2023-12-29T09:04:23;4.77;;;1.20;;
18580;SDS011;9420;50.876;7.012;2023-12-29T09:06:49;10.50;;;2.53;;
18580;SDS011;9420;50.876;7.012;2023-12-29T09:09:16;10.67;;;1.40;;
18580;SDS011;9420;50.876;7.012;2023-12-29T09:11:43;4.30;;;1.57;;
18580;SDS011;9420;50.876;7.012;2023-12-29T09:14:10;5.73;;;1.50;;
18580;SDS011;9420;50.876;7.012;2023-12-29T09:16:37;3.07;;;0.97;;
18580;SDS011;9420;50.876;7.012;2023-12-29T09:19:04;6.10;;;0.90;;
18580;SDS011;9420;50.876;7.012;2023-12-29T09:21:31;3.70;;;0.87;;
18580;SDS011;9420;50.876;7.012;2023-12-29T09:23:58;4.50;;;1.50;;
18580;SDS011;9420;50.876;7.012;2023-12-29T09:26:24;6.67;;;1.43;;
18580;SDS011;9420;50.876;7.012;2023-12-29T09:28:51;4.30;;;1.50;;
18580;SDS011;9420;50.876;7.012;2023-12-29T09:31:17;8.73;;;0.87;;
18580;SDS011;9420;50.876;7.012;2023-12-29T09:33:44;2.00;;;1.20;;
18580;SDS011;9420;50.876;7.012;2023-12-29T09:36:15;3.87;;;2.20;;
18580;SDS011;9420;50.876;7.012;2023-12-29T09:38:50;7.23;;;1.10;;
18580;SDS011;9420;50.876;7.012;2023-12-29T09:41:20;3.23;;;0.80;;
18580;SDS011;9420;50.876;7.012;2023-12-29T09:43:50;5.87;;;1.63;;
18580;SDS011;9420;50.876;7.012;2023-12-29T09:46:18;4.60;;;1.17;;
18580;SDS011;9420;50.876;7.012;2023-12-29T09:48:48;3.30;;;0.90;;
18580;SDS011;9420;50.876;7.012;2023-12-29T09:51:19;2.80;;;0.70;;
18580;SDS011;9420;50.876;7.012;2023-12-29T09:53:48;4.00;;;0.60;;
18580;SDS011;9420;50.876;7.012;2023-12-29T09:56:15;7.50;;;1.07;;
18580;SDS011;9420;50.876;7.012;2023-12-29T09:58:42;4.23;;;0.80;;
18580;SDS011;9420;50.876;7.012;2023-12-29T10:01:10;2.23;;;1.30;;
18580;SDS011;9420;50.876;7.012;2023-12-29T10:03:37;2.93;;;0.80;;
18580;SDS011;9420;50.876;7.012;2023-12-29T10:06:06;3.80;;;0.90;;
18580;SDS011;9420;50.876;7.012;2023-12-29T10:08:35;2.10;;;0.67;;
18580;SDS011;9420;50.876;7.012;2023-12-29T10:11:04;1.97;;;0.87;;
18580;SDS011;9420;50.876;7.012;2023-12-29T10:13:33;3.47;;;0.90;;
18580;SDS011;9420;50.876;7.012;2023-12-29T10:16:03;5.63;;;1.20;;
18580;SDS011;9420;50.876;7.012;2023-12-29T10:18:37;2.87;;;0.90;;
18580;SDS011;9420;50.876;7.012;2023-12-29T10:21:12;2.17;;;0.57;;
18580;SDS011;9420;50.876;7.012;2023-12-29T10:23:47;0.73;;;0.50;;
18580;SDS011;9420;50.876;7.012;2023-12-29T10:26:16;1.17;;;0.60;;
18580;SDS011;9420;50.876;7.012;2023-12-29T10:28:43;2.17;;;0.50;;
18580;SDS011;9420;50.876;7.012;2023-12-29T10:31:14;3.50;;;0.53;;
18580;SDS011;9420;50.876;7.012;2023-12-29T10:33:41;2.17;;;0.50;;
18580;SDS011;9420;50.876;7.012;2023-12-29T10:36:08;0.90;;;0.53;;
18580;SDS011;9420;50.876;7.012;2023-12-29T10:38:38;2.10;;;0.50;;
18580;SDS011;9420;50.876;7.012;2023-12-29T10:41:13;2.73;;;0.60;;
18580;SDS011;9420;50.876;7.012;2023-12-29T10:43:41;3.83;;;0.70;;
18580;SDS011;9420;50.876;7.012;2023-12-29T10:46:09;2.40;;;0.77;;
18580;SDS011;9420;50.876;7.012;2023-12-29T10:48:37;1.80;;;0.70;;
18580;SDS011;9420;50.876;7.012;2023-12-29T10:51:04;2.17;;;0.87;;
18580;SDS011;9420;50.876;7.012;2023-12-29T10:53:32;1.60;;;0.50;;
18580;SDS011;9420;50.876;7.012;2023-12-29T10:55:59;1.30;;;0.60;;
18580;SDS011;9420;50.876;7.012;2023-12-29T10:58:29;3.07;;;0.70;;
18580;SDS011;9420;50.876;7.012;2023-12-29T11:00:57;0.93;;;0.70;;
18580;SDS011;9420;50.876;7.012;2023-12-29T11:03:25;2.20;;;0.47;;
18580;SDS011;9420;50.876;7.012;2023-12-29T11:05:52;1.63;;;0.70;;
18580;SDS011;9420;50.876;7.012;2023-12-29T11:08:25;0.63;;;0.57;;
18580;SDS011;9420;50.876;7.012;2023-12-29T11:10:53;2.43;;;0.80;;
18580;SDS011;9420;50.876;7.012;2023-12-29T11:13:20;2.57;;;0.43;;
18580;SDS011;9420;50.876;7.012;2023-12-29T11:15:49;3.77;;;0.50;;
18580;SDS011;9420;50.876;7.012;2023-12-29T11:18:18;1.70;;;0.90;;
18580;SDS011;9420;50.876;7.012;2023-12-29T11:20:45;1.00;;;0.47;;
18580;SDS011;9420;50.876;7.012;2023-12-29T11:23:12;2.50;;;0.60;;
18580;SDS011;9420;50.876;7.012;2023-12-29T11:25:39;1.03;;;0.53;;
18580;SDS011;9420;50.876;7.012;2023-12-29T11:28:08;1.53;;;0.60;;
18580;SDS011;9420;50.876;7.012;2023-12-29T11:30:37;0.80;;;0.40;;
18580;SDS011;9420;50.876;7.012;2023-12-29T11:33:07;2.93;;;0.70;;
18580;SDS011;9420;50.876;7.012;2023-12-29T11:35:39;2.90;;;0.70;;
18580;SDS011;9420;50.876;7.012;2023-12-29T11:38:24;1.23;;;0.67;;
18580;SDS011;9420;50.876;7.012;2023-12-29T11:41:00;3.27;;;0.70;;
18580;SDS011;9420;50.876;7.012;2023-12-29T11:43:31;3.10;;;0.80;;
18580;SDS011;9420;50.876;7.012;2023-12-29T11:45:58;2.33;;;0.30;;
18580;SDS011;9420;50.876;7.012;2023-12-29T11:51:28;3.00;;;0.60;;
18580;SDS011;9420;50.876;7.012;2023-12-29T11:53:54;1.40;;;0.40;;
18580;SDS011;9420;50.876;7.012;2023-12-29T11:56:22;0.67;;;0.30;;
18580;SDS011;9420;50.876;7.012;2023-12-29T11:58:48;1.13;;;0.43;;
18580;SDS011;9420;50.876;7.012;2023-12-29T12:01:26;3.90;;;0.53;;
18580;SDS011;9420;50.876;7.012;2023-12-29T12:04:01;1.20;;;0.40;;
18580;SDS011;9420;50.876;7.012;2023-12-29T12:06:36;6.20;;;1.63;;
18580;SDS011;9420;50.876;7.012;2023-12-29T12:09:16;0.70;;;0.20;;
18580;SDS011;9420;50.876;7.012;2023-12-29T12:11:43;1.83;;;0.43;;
18580;SDS011;9420;50.876;7.012;2023-12-29T12:14:10;1.00;;;0.50;;
18580;SDS011;9420;50.876;7.012;2023-12-29T12:16:46;1.03;;;0.33;;
18580;SDS011;9420;50.876;7.012;2023-12-29T12:19:15;1.07;;;0.43;;
18580;SDS011;9420;50.876;7.012;2023-12-29T12:21:45;0.20;;;0.20;;
18580;SDS011;9420;50.876;7.012;2023-12-29T12:24:12;0.43;;;0.20;;
18580;SDS011;9420;50.876;7.012;2023-12-29T12:26:40;0.90;;;0.10;;
18580;SDS011;9420;50.876;7.012;2023-12-29T12:29:06;0.93;;;0.30;;
18580;SDS011;9420;50.876;7.012;2023-12-29T12:31:34;1.37;;;0.30;;
18580;SDS011;9420;50.876;7.012;2023-12-29T12:34:00;0.60;;;0.27;;
18580;SDS011;9420;50.876;7.012;2023-12-29T12:36:29;0.30;;;0.10;;
18580;SDS011;9420;50.876;7.012;2023-12-29T12:38:56;0.30;;;0.20;;
18580;SDS011;9420;50.876;7.012;2023-12-29T12:41:24;1.60;;;0.30;;
18580;SDS011;9420;50.876;7.012;2023-12-29T12:43:56;0.47;;;0.10;;
18580;SDS011;9420;50.876;7.012;2023-12-29T12:46:36;0.60;;;0.30;;
18580;SDS011;9420;50.876;7.012;2023-12-29T12:49:07;0.30;;;0.20;;
18580;SDS011;9420;50.876;7.012;2023-12-29T12:51:35;5.00;;;0.47;;
18580;SDS011;9420;50.876;7.012;2023-12-29T12:54:02;0.60;;;0.17;;
18580;SDS011;9420;50.876;7.012;2023-12-29T12:56:30;0.30;;;0.23;;
18580;SDS011;9420;50.876;7.012;2023-12-29T12:58:57;2.73;;;0.53;;
18580;SDS011;9420;50.876;7.012;2023-12-29T13:01:24;1.33;;;0.20;;
18580;SDS011;9420;50.876;7.012;2023-12-29T13:03:51;1.10;;;0.20;;
18580;SDS011;9420;50.876;7.012;2023-12-29T13:06:18;0.87;;;0.20;;
18580;SDS011;9420;50.876;7.012;2023-12-29T13:08:47;0.93;;;0.17;;
18580;SDS011;9420;50.876;7.012;2023-12-29T13:11:18;0.57;;;0.40;;
18580;SDS011;9420;50.876;7.012;2023-12-29T13:13:47;0.40;;;0.10;;
18580;SDS011;9420;50.876;7.012;2023-12-29T13:16:13;2.03;;;0.37;;
18580;SDS011;9420;50.876;7.012;2023-12-29T13:18:40;1.10;;;0.60;;
18580;SDS011;9420;50.876;7.012;2023-12-29T13:21:07;2.63;;;0.40;;
18580;SDS011;9420;50.876;7.012;2023-12-29T13:23:34;0.57;;;0.17;;
18580;SDS011;9420;50.876;7.012;2023-12-29T13:26:05;1.10;;;0.37;;
18580;SDS011;9420;50.876;7.012;2023-12-29T13:28:33;0.77;;;0.37;;
18580;SDS011;9420;50.876;7.012;2023-12-29T13:31:01;0.43;;;0.10;;
18580;SDS011;9420;50.876;7.012;2023-12-29T13:33:29;0.77;;;0.20;;
18580;SDS011;9420;50.876;7.012;2023-12-29T13:36:03;0.60;;;0.27;;
18580;SDS011;9420;50.876;7.012;2023-12-29T13:38:35;0.80;;;0.20;;
18580;SDS011;9420;50.876;7.012;2023-12-29T13:41:10;2.93;;;0.50;;
18580;SDS011;9420;50.876;7.012;2023-12-29T13:43:39;0.60;;;0.20;;
18580;SDS011;9420;50.876;7.012;2023-12-29T13:46:08;1.20;;;0.40;;
18580;SDS011;9420;50.876;7.012;2023-12-29T13:48:36;0.70;;;0.23;;
18580;SDS011;9420;50.876;7.012;2023-12-29T13:51:04;0.33;;;0.20;;
18580;SDS011;9420;50.876;7.012;2023-12-29T13:53:31;0.60;;;0.30;;
18580;SDS011;9420;50.876;7.012;2023-12-29T13:56:05;0.67;;;0.20;;
18580;SDS011;9420;50.876;7.012;2023-12-29T13:58:34;1.93;;;0.30;;
18580;SDS011;9420;50.876;7.012;2023-12-29T14:01:00;1.67;;;0.53;;
18580;SDS011;9420;50.876;7.012;2023-12-29T14:03:30;3.30;;;0.33;;
18580;SDS011;9420;50.876;7.012;2023-12-29T14:05:59;1.10;;;0.23;;
18580;SDS011;9420;50.876;7.012;2023-12-29T14:08:31;0.87;;;0.10;;
18580;SDS011;9420;50.876;7.012;2023-12-29T14:10:59;0.70;;;0.30;;
18580;SDS011;9420;50.876;7.012;2023-12-29T14:13:26;1.00;;;0.60;;
18580;SDS011;9420;50.876;7.012;2023-12-29T14:15:57;0.77;;;0.20;;
18580;SDS011;9420;50.876;7.012;2023-12-29T14:18:32;1.03;;;0.10;;
18580;SDS011;9420;50.876;7.012;2023-12-29T14:21:22;2.27;;;0.37;;
18580;SDS011;9420;50.876;7.012;2023-12-29T14:23:59;1.07;;;0.30;;
18580;SDS011;9420;50.876;7.012;2023-12-29T14:26:32;2.87;;;0.30;;
18580;SDS011;9420;50.876;7.012;2023-12-29T14:29:02;1.90;;;0.30;;
18580;SDS011;9420;50.876;7.012;2023-12-29T14:31:32;0.90;;;0.30;;
18580;SDS011;9420;50.876;7.012;2023-12-29T14:34:01;2.43;;;0.30;;
18580;SDS011;9420;50.876;7.012;2023-12-29T14:36:29;1.50;;;0.40;;
18580;SDS011;9420;50.876;7.012;2023-12-29T14:38:56;3.43;;;1.17;;
18580;SDS011;9420;50.876;7.012;2023-12-29T14:41:22;2.80;;;1.00;;
18580;SDS011;9420;50.876;7.012;2023-12-29T14:43:49;2.50;;;0.70;;
18580;SDS011;9420;50.876;7.012;2023-12-29T14:46:16;4.40;;;1.10;;
18580;SDS011;9420;50.876;7.012;2023-12-29T14:48:44;2.77;;;0.80;;
18580;SDS011;9420;50.876;7.012;2023-12-29T14:51:11;2.40;;;0.97;;
18580;SDS011;9420;50.876;7.012;2023-12-29T14:53:37;1.53;;;0.50;;
18580;SDS011;9420;50.876;7.012;2023-12-29T14:56:04;1.23;;;0.50;;
18580;SDS011;9420;50.876;7.012;2023-12-29T14:58:31;0.30;;;0.13;;
18580;SDS011;9420;50.876;7.012;2023-12-29T15:00:58;0.53;;;0.20;;
18580;SDS011;9420;50.876;7.012;2023-12-29T15:03:25;1.33;;;0.40;;
18580;SDS011;9420;50.876;7.012;2023-12-29T15:05:52;0.50;;;0.37;;
18580;SDS011;9420;50.876;7.012;2023-12-29T15:08:19;0.63;;;0.40;;